createdAt,value
2017-10-25T00:00:00.405Z,10.15
2017-10-25T00:01:00.395Z,9.96
2017-10-25T00:02:00.380Z,10.15
2017-10-25T00:03:00.371Z,9.58
2017-10-25T00:04:00.358Z,9.48
2017-10-25T00:05:00.341Z,9.58
2017-10-25T00:06:00.338Z,9.67
2017-10-25T00:07:00.314Z,9.86
2017-10-25T00:07:59.973Z,9.96
2017-10-25T00:08:59.954Z,9.58
2017-10-25T00:09:59.944Z,9.48
2017-10-25T00:10:59.935Z,9.67
2017-10-25T00:12:00.256Z,9.77
2017-10-25T00:12:59.900Z,9.77
2017-10-25T00:14:00.231Z,9.86
2017-10-25T00:15:00.217Z,9.19
2017-10-25T00:16:00.207Z,9.1
2017-10-25T00:16:59.851Z,8.62
2017-10-25T00:17:59.842Z,7.95
2017-10-25T00:19:00.166Z,7.86
2017-10-25T00:19:59.820Z,8.72
2017-10-25T00:21:00.147Z,8.14
2017-10-25T00:22:00.121Z,8.33
2017-10-25T00:23:00.126Z,8.14
2017-10-25T00:23:59.764Z,7.95
2017-10-25T00:24:59.749Z,7.86
2017-10-25T00:25:59.738Z,7.66
2017-10-25T00:27:00.058Z,7.95
2017-10-25T00:28:00.046Z,8.23
2017-10-25T00:29:00.030Z,8.43
2017-10-25T00:30:00.025Z,8.23
2017-10-25T00:31:00.008Z,7.76
2017-10-25T00:32:00.007Z,7.95
2017-10-25T00:32:59.983Z,8.04
2017-10-25T00:33:59.633Z,8.62
2017-10-25T00:34:59.965Z,9.48
2017-10-25T00:35:59.943Z,9.58
2017-10-25T00:36:59.601Z,9.67
2017-10-25T00:37:59.916Z,9.48
2017-10-25T00:38:59.901Z,10.06
2017-10-25T00:39:59.895Z,10.44
2017-10-25T00:40:59.888Z,10.44
2017-10-25T00:41:59.867Z,10.54
2017-10-25T00:42:59.523Z,11.11
2017-10-25T00:43:59.840Z,11.3
2017-10-25T00:44:59.827Z,11.59
2017-10-25T00:45:59.485Z,11.49
2017-10-25T00:46:59.800Z,11.88
2017-10-25T00:47:59.457Z,11.4
2017-10-25T00:48:59.777Z,11.69
2017-10-25T00:49:59.768Z,11.69
2017-10-25T00:50:59.748Z,12.16
2017-10-25T00:51:59.416Z,12.17
2017-10-25T00:52:59.732Z,12.07
2017-10-25T00:53:59.713Z,12.36
2017-10-25T00:54:59.703Z,12.55
2017-10-25T00:55:59.692Z,12.27
2017-10-25T00:56:59.348Z,12.74
2017-10-25T00:57:59.335Z,12.84
2017-10-25T00:58:59.655Z,12.93
2017-10-25T00:59:59.312Z,13.03
2017-10-25T01:00:59.625Z,13.32
2017-10-25T01:01:59.278Z,13.89
2017-10-25T01:02:59.601Z,14.09
2017-10-25T01:03:59.590Z,14.09
2017-10-25T01:04:59.573Z,14.09
2017-10-25T01:05:59.230Z,14.09
2017-10-25T01:06:59.547Z,13.89
2017-10-25T01:07:59.538Z,13.99
2017-10-25T01:08:59.194Z,14.09
2017-10-25T01:09:59.509Z,13.99
2017-10-25T01:10:59.498Z,14.18
2017-10-25T01:11:59.492Z,14.76
2017-10-25T01:12:59.475Z,14.56
2017-10-25T01:13:59.129Z,14.85
2017-10-25T01:14:59.451Z,14.85
2017-10-25T01:15:59.433Z,14.66
2017-10-25T01:16:59.091Z,14.56
2017-10-25T01:17:59.412Z,15.05
2017-10-25T01:18:59.074Z,14.76
2017-10-25T01:19:59.048Z,15.05
2017-10-25T01:20:59.060Z,14.47
2017-10-25T01:21:59.363Z,14.56
2017-10-25T01:22:59.400Z,14.95
2017-10-25T01:23:59.336Z,14.95
2017-10-25T01:24:59.197Z,15.05
2017-10-25T01:25:59.313Z,15.14
2017-10-25T01:26:58.967Z,15.23
2017-10-25T01:27:59.286Z,15.14
2017-10-25T01:28:59.278Z,15.43
2017-10-25T01:29:58.926Z,15.52
2017-10-25T01:30:59.249Z,15.33
2017-10-25T01:31:59.239Z,15.14
2017-10-25T01:32:58.892Z,15.43
2017-10-25T01:33:59.214Z,15.14
2017-10-25T01:34:59.195Z,15.43
2017-10-25T01:35:58.855Z,14.76
2017-10-25T01:36:59.174Z,14.95
2017-10-25T01:37:59.170Z,14.66
2017-10-25T01:38:58.820Z,14.47
2017-10-25T01:39:59.138Z,15.05
2017-10-25T01:40:59.122Z,14.56
2017-10-25T01:41:59.109Z,14.18
2017-10-25T01:42:59.100Z,14.56
2017-10-25T01:43:58.754Z,14.09
2017-10-25T01:44:59.074Z,13.7
2017-10-25T01:45:58.728Z,13.99
2017-10-25T01:46:59.058Z,13.8
2017-10-25T01:47:58.707Z,13.32
2017-10-25T01:48:58.691Z,12.93
2017-10-25T01:49:58.678Z,12.55
2017-10-25T01:50:59.011Z,12.07
2017-10-25T01:51:59.000Z,11.79
2017-10-25T01:52:58.977Z,11.79
2017-10-25T01:53:58.966Z,11.02
2017-10-25T01:54:58.949Z,10.54
2017-10-25T01:55:58.945Z,10.73
2017-10-25T01:56:58.589Z,10.83
2017-10-25T01:57:58.581Z,10.44
2017-10-25T01:58:58.579Z,10.35
2017-10-25T01:59:58.897Z,10.25
2017-10-25T02:00:58.540Z,9.58
2017-10-25T02:01:58.877Z,9.2
2017-10-25T02:02:58.513Z,7.95
2017-10-25T02:03:58.506Z,7.18
2017-10-25T02:04:58.488Z,6.51
2017-10-25T02:05:58.810Z,6.51
2017-10-25T02:06:58.797Z,6.04
2017-10-25T02:07:58.787Z,5.75
2017-10-25T02:08:58.779Z,5.84
2017-10-25T02:09:58.430Z,4.98
2017-10-25T02:10:58.750Z,4.79
2017-10-25T02:11:58.402Z,4.69
2017-10-25T02:12:58.723Z,4.31
2017-10-25T02:13:58.716Z,3.35
2017-10-25T02:14:58.374Z,3.35
2017-10-25T02:15:58.691Z,2.68
2017-10-25T02:16:58.677Z,2.87
2017-10-25T02:17:58.666Z,2.49
2017-10-25T02:18:58.648Z,1.62
2017-10-25T02:19:58.312Z,1.15
2017-10-25T02:20:58.291Z,0.57
2017-10-25T02:21:58.609Z,0.38
2017-10-25T02:22:58.597Z,0.09
2017-10-25T02:23:58.583Z,0
2017-10-25T02:24:58.578Z,0
2017-10-25T02:25:58.224Z,0
2017-10-25T02:26:58.545Z,0
2017-10-25T02:27:58.535Z,0
2017-10-25T02:28:58.188Z,0
2017-10-25T02:29:58.177Z,0
2017-10-25T02:30:58.494Z,0
2017-10-25T02:31:58.150Z,0
2017-10-25T02:32:58.143Z,0
2017-10-25T02:33:58.461Z,0
2017-10-25T02:34:58.441Z,0
2017-10-25T02:35:58.100Z,0
2017-10-25T02:36:58.087Z,0
2017-10-25T02:37:58.072Z,0
2017-10-25T02:38:58.058Z,0
2017-10-25T02:39:58.047Z,0
2017-10-25T02:40:58.369Z,0
2017-10-25T02:41:58.353Z,0
2017-10-25T02:42:58.336Z,0
2017-10-25T02:43:58.322Z,0
2017-10-25T02:44:58.313Z,0
2017-10-25T02:45:58.300Z,0
2017-10-25T02:46:58.295Z,0
2017-10-25T02:47:58.287Z,0
2017-10-25T02:48:58.256Z,0
2017-10-25T02:49:58.249Z,0
2017-10-25T02:50:58.235Z,0
2017-10-25T02:51:57.889Z,0
2017-10-25T02:52:57.876Z,0
2017-10-25T02:53:58.209Z,0
2017-10-25T02:54:58.184Z,0
2017-10-25T02:55:57.844Z,0
2017-10-25T02:56:57.825Z,0
2017-10-25T02:57:58.142Z,0
2017-10-25T02:58:57.798Z,0
2017-10-25T02:59:57.785Z,0
2017-10-25T03:00:58.105Z,0
2017-10-25T03:01:57.757Z,0
2017-10-25T03:02:58.072Z,0
2017-10-25T03:03:58.061Z,0
2017-10-25T03:04:58.068Z,0
2017-10-25T03:05:58.037Z,0
2017-10-25T03:06:58.031Z,0
2017-10-25T03:07:58.014Z,0
2017-10-25T03:08:57.666Z,0
2017-10-25T03:09:57.661Z,0
2017-10-25T03:10:57.643Z,0
2017-10-25T03:11:57.633Z,0
2017-10-25T03:12:57.949Z,0
2017-10-25T03:13:57.938Z,0
2017-10-25T03:14:57.918Z,0
2017-10-25T03:15:57.922Z,0
2017-10-25T03:16:57.558Z,0
2017-10-25T03:17:57.878Z,0
2017-10-25T03:18:57.870Z,0
2017-10-25T03:19:57.520Z,0
2017-10-25T03:20:57.507Z,0
2017-10-25T03:21:57.831Z,0
2017-10-25T03:22:57.815Z,0
2017-10-25T03:23:57.802Z,0
2017-10-25T03:24:57.993Z,0
2017-10-25T03:25:57.775Z,0
2017-10-25T03:26:57.758Z,0
2017-10-25T03:27:57.411Z,0
2017-10-25T03:28:57.400Z,0
2017-10-25T03:29:57.720Z,0
2017-10-25T03:30:57.708Z,0
2017-10-25T03:31:57.361Z,0
2017-10-25T03:32:57.349Z,0
2017-10-25T03:33:57.671Z,0
2017-10-25T03:34:57.323Z,0
2017-10-25T03:35:57.652Z,0
2017-10-25T03:36:57.626Z,0
2017-10-25T03:37:57.288Z,0
2017-10-25T03:38:57.602Z,0
2017-10-25T03:39:57.594Z,0
2017-10-25T03:40:57.591Z,0
2017-10-25T03:41:57.230Z,0
2017-10-25T03:42:57.547Z,0
2017-10-25T03:43:57.546Z,0
2017-10-25T03:44:57.188Z,0
2017-10-25T03:45:57.178Z,0
2017-10-25T03:46:57.167Z,0
2017-10-25T03:47:57.482Z,0
2017-10-25T03:48:57.136Z,0
2017-10-25T03:49:57.463Z,0
2017-10-25T03:50:57.446Z,0
2017-10-25T03:51:57.111Z,0
2017-10-25T03:52:57.418Z,0
2017-10-25T03:53:57.401Z,0
2017-10-25T03:54:57.389Z,0
2017-10-25T03:55:57.045Z,0
2017-10-25T03:56:57.368Z,0
2017-10-25T03:57:57.019Z,0
2017-10-25T03:58:57.008Z,0
2017-10-25T03:59:57.325Z,0
2017-10-25T04:00:57.341Z,0
2017-10-25T04:01:57.303Z,0
2017-10-25T04:02:57.286Z,0
2017-10-25T04:03:57.273Z,0
2017-10-25T04:04:57.263Z,0
2017-10-25T04:05:56.913Z,0
2017-10-25T04:06:57.243Z,0
2017-10-25T04:07:57.221Z,0
2017-10-25T04:08:56.894Z,0
2017-10-25T04:09:57.202Z,0
2017-10-25T04:10:57.184Z,0
2017-10-25T04:11:57.175Z,0
2017-10-25T04:12:56.833Z,0
2017-10-25T04:13:57.148Z,0
2017-10-25T04:14:57.133Z,0
2017-10-25T04:15:57.121Z,0
2017-10-25T04:16:57.111Z,0
2017-10-25T04:17:57.093Z,0
2017-10-25T04:18:56.744Z,0
2017-10-25T04:19:57.065Z,0
2017-10-25T04:20:57.054Z,0
2017-10-25T04:21:56.712Z,0
2017-10-25T04:22:56.697Z,0
2017-10-25T04:23:57.021Z,0
2017-10-25T04:24:56.665Z,0
2017-10-25T04:25:56.989Z,0
2017-10-25T04:26:56.647Z,0
2017-10-25T04:27:56.629Z,0
2017-10-25T04:28:56.954Z,0
2017-10-25T04:29:56.704Z,0
2017-10-25T04:30:56.590Z,0
2017-10-25T04:31:56.923Z,0
2017-10-25T04:32:56.566Z,0
2017-10-25T04:33:56.883Z,0
2017-10-25T04:34:56.539Z,0
2017-10-25T04:35:56.527Z,0
2017-10-25T04:36:56.510Z,0
2017-10-25T04:37:56.834Z,0
2017-10-25T04:38:56.490Z,0
2017-10-25T04:39:56.807Z,0
2017-10-25T04:40:56.796Z,0
2017-10-25T04:41:56.781Z,0
2017-10-25T04:42:56.769Z,0
2017-10-25T04:43:56.762Z,0
2017-10-25T04:44:56.742Z,0.67
2017-10-25T04:45:56.732Z,1.15
2017-10-25T04:46:56.384Z,1.62
2017-10-25T04:47:56.703Z,2.68
2017-10-25T04:48:56.693Z,2.78
2017-10-25T04:49:56.342Z,3.45
2017-10-25T04:50:56.666Z,3.25
2017-10-25T04:51:56.668Z,3.74
2017-10-25T04:52:56.312Z,3.83
2017-10-25T04:53:56.651Z,4.88
2017-10-25T04:54:56.380Z,6.03
2017-10-25T04:55:56.273Z,6.32
2017-10-25T04:56:56.252Z,7.18
2017-10-25T04:57:56.238Z,7.56
2017-10-25T04:58:56.228Z,7.86
2017-10-25T04:59:56.554Z,8.72
2017-10-25T05:00:56.533Z,9.1
2017-10-25T05:01:56.188Z,9.1
2017-10-25T05:02:56.172Z,9.1
2017-10-25T05:03:56.495Z,9.19
2017-10-25T05:04:56.478Z,8.91
2017-10-25T05:05:56.472Z,8.91
2017-10-25T05:06:56.120Z,9.96
2017-10-25T05:07:56.448Z,10.25
2017-10-25T05:08:56.429Z,10.63
2017-10-25T05:09:56.419Z,10.06
2017-10-25T05:10:56.071Z,10.25
2017-10-25T05:11:56.389Z,9.77
2017-10-25T05:12:56.378Z,10.06
2017-10-25T05:13:56.031Z,10.15
2017-10-25T05:14:56.452Z,10.06
2017-10-25T05:15:56.007Z,11.01
2017-10-25T05:16:55.992Z,11.01
2017-10-25T05:17:55.978Z,11.01
2017-10-25T05:18:55.977Z,10.92
2017-10-25T05:19:56.286Z,11.01
2017-10-25T05:20:56.276Z,10.82
2017-10-25T05:21:55.926Z,10.72
2017-10-25T05:22:55.915Z,11.21
2017-10-25T05:23:55.903Z,11.78
2017-10-25T05:24:56.422Z,11.78
2017-10-25T05:25:56.217Z,12.07
2017-10-25T05:26:55.860Z,12.45
2017-10-25T05:27:56.181Z,12.84
2017-10-25T05:28:55.832Z,12.74
2017-10-25T05:29:56.159Z,12.74
2017-10-25T05:30:55.810Z,13.12
2017-10-25T05:31:56.135Z,13.79
2017-10-25T05:32:56.120Z,13.89
2017-10-25T05:33:55.779Z,13.98
2017-10-25T05:34:55.757Z,14.08
2017-10-25T05:35:56.086Z,14.17
2017-10-25T05:36:55.732Z,14.08
2017-10-25T05:37:56.057Z,14.08
2017-10-25T05:38:56.038Z,14.08
2017-10-25T05:39:56.040Z,13.51
2017-10-25T05:40:55.682Z,13.51
2017-10-25T05:41:56.005Z,13.7
2017-10-25T05:42:55.986Z,14.27
2017-10-25T05:43:55.642Z,14.75
2017-10-25T05:44:55.962Z,15.04
2017-10-25T05:45:55.621Z,14.65
2017-10-25T05:46:55.938Z,14.65
2017-10-25T05:47:55.595Z,14.65
2017-10-25T05:48:55.578Z,14.65
2017-10-25T05:49:55.896Z,14.84
2017-10-25T05:50:55.882Z,14.84
2017-10-25T05:51:55.868Z,14.37
2017-10-25T05:52:55.874Z,14.27
2017-10-25T05:53:55.512Z,14.46
2017-10-25T05:54:55.835Z,14.27
2017-10-25T05:55:55.824Z,14.08
2017-10-25T05:56:55.802Z,13.89
2017-10-25T05:57:55.793Z,13.79
2017-10-25T05:58:55.778Z,14.46
2017-10-25T05:59:55.432Z,15.33
2017-10-25T06:00:55.422Z,16
2017-10-25T06:01:55.746Z,16.86
2017-10-25T06:02:55.397Z,17.43
2017-10-25T06:03:55.380Z,17.14
2017-10-25T06:04:55.370Z,17.91
2017-10-25T06:05:55.695Z,18.49
2017-10-25T06:06:55.348Z,18.68
2017-10-25T06:07:55.324Z,19.25
2017-10-25T06:08:55.312Z,19.16
2017-10-25T06:09:55.646Z,19.25
2017-10-25T06:10:55.288Z,19.06
2017-10-25T06:11:55.621Z,18.77
2017-10-25T06:12:55.619Z,19.54
2017-10-25T06:13:55.583Z,19.82
2017-10-25T06:14:55.586Z,19.54
2017-10-25T06:15:55.223Z,20.5
2017-10-25T06:16:55.549Z,21.26
2017-10-25T06:17:55.195Z,20.98
2017-10-25T06:18:55.187Z,21.65
2017-10-25T06:19:55.504Z,21.65
2017-10-25T06:20:55.500Z,21.65
2017-10-25T06:21:55.483Z,21.94
2017-10-25T06:22:55.477Z,22.61
2017-10-25T06:23:55.143Z,23.47
2017-10-25T06:24:55.441Z,23.94
2017-10-25T06:25:55.529Z,23.85
2017-10-25T06:26:55.082Z,23.75
2017-10-25T06:27:55.402Z,23.57
2017-10-25T06:28:55.397Z,24.23
2017-10-25T06:29:55.041Z,25.38
2017-10-25T06:30:55.370Z,25.67
2017-10-25T06:31:55.352Z,25.67
2017-10-25T06:32:55.002Z,26.06
2017-10-25T06:33:55.318Z,25.87
2017-10-25T06:34:55.309Z,25.86
2017-10-25T06:35:55.403Z,26.25
2017-10-25T06:36:54.949Z,26.15
2017-10-25T06:37:54.933Z,25.67
2017-10-25T06:38:54.922Z,25.67
2017-10-25T06:39:55.247Z,25.86
2017-10-25T06:40:55.237Z,26.63
2017-10-25T06:41:54.883Z,26.63
2017-10-25T06:42:55.208Z,27.39
2017-10-25T06:43:54.862Z,26.43
2017-10-25T06:44:55.181Z,26.34
2017-10-25T06:45:55.267Z,26.63
2017-10-25T06:46:55.158Z,28.06
2017-10-25T06:47:55.138Z,28.06
2017-10-25T06:48:55.134Z,27.68
2017-10-25T06:49:55.112Z,27.39
2017-10-25T06:50:55.105Z,27.59
2017-10-25T06:51:55.090Z,27.39
2017-10-25T06:52:55.074Z,26.82
2017-10-25T06:53:54.727Z,27.87
2017-10-25T06:54:55.047Z,28.26
2017-10-25T06:55:54.706Z,28.35
2017-10-25T06:56:55.030Z,28.16
2017-10-25T06:57:55.015Z,28.35
2017-10-25T06:58:55.031Z,28.64
2017-10-25T06:59:54.653Z,28.64
2017-10-25T07:00:54.976Z,29.12
2017-10-25T07:01:54.624Z,28.64
2017-10-25T07:02:54.949Z,29.6
2017-10-25T07:03:54.600Z,30.19
2017-10-25T07:04:54.919Z,32.01
2017-10-25T07:05:54.909Z,32.97
2017-10-25T07:06:54.898Z,34.31
2017-10-25T07:07:54.888Z,33.92
2017-10-25T07:08:54.553Z,35.17
2017-10-25T07:09:54.532Z,34.5
2017-10-25T07:10:54.511Z,35.46
2017-10-25T07:11:54.834Z,35.36
2017-10-25T07:12:54.489Z,36.22
2017-10-25T07:13:54.807Z,36.61
2017-10-25T07:14:54.460Z,36.8
2017-10-25T07:15:54.783Z,37.57
2017-10-25T07:16:54.783Z,36.8
2017-10-25T07:17:54.759Z,36.9
2017-10-25T07:18:54.420Z,40.16
2017-10-25T07:19:54.734Z,40.06
2017-10-25T07:20:54.719Z,40.54
2017-10-25T07:21:54.379Z,39.2
2017-10-25T07:22:54.699Z,39.87
2017-10-25T07:23:54.682Z,41.31
2017-10-25T07:24:54.884Z,40.54
2017-10-25T07:25:54.329Z,41.31
2017-10-25T07:26:54.316Z,41.69
2017-10-25T07:27:54.638Z,41.69
2017-10-25T07:28:54.290Z,41.21
2017-10-25T07:29:54.284Z,44.95
2017-10-25T07:30:54.260Z,45.04
2017-10-25T07:31:54.687Z,45.23
2017-10-25T07:32:54.239Z,46
2017-10-25T07:33:54.565Z,46.67
2017-10-25T07:34:54.555Z,46.67
2017-10-25T07:35:54.208Z,48.11
2017-10-25T07:36:54.519Z,47.63
2017-10-25T07:37:54.510Z,46.48
2017-10-25T07:38:54.499Z,47.82
2017-10-25T07:39:54.149Z,50.12
2017-10-25T07:40:54.468Z,49.07
2017-10-25T07:41:54.236Z,50.22
2017-10-25T07:42:54.114Z,51.56
2017-10-25T07:43:54.098Z,50.22
2017-10-25T07:44:54.419Z,51.65
2017-10-25T07:45:54.074Z,52.42
2017-10-25T07:46:54.393Z,54.63
2017-10-25T07:47:54.387Z,53.58
2017-10-25T07:48:54.385Z,53.67
2017-10-25T07:49:54.023Z,55.87
2017-10-25T07:50:54.346Z,54.91
2017-10-25T07:51:54.007Z,56.93
2017-10-25T07:52:54.320Z,58.08
2017-10-25T07:53:54.315Z,57.7
2017-10-25T07:54:53.966Z,59.33
2017-10-25T07:55:54.288Z,57.89
2017-10-25T07:56:54.275Z,58.56
2017-10-25T07:57:54.265Z,59.61
2017-10-25T07:58:53.915Z,58.46
2017-10-25T07:59:53.902Z,59.23
2017-10-25T08:00:53.890Z,59.71
2017-10-25T08:01:53.877Z,60.7
2017-10-25T08:02:53.864Z,59.93
2017-10-25T08:03:54.189Z,60.09
2017-10-25T08:04:53.846Z,59.55
2017-10-25T08:05:54.160Z,61.94
2017-10-25T08:06:54.159Z,63.57
2017-10-25T08:07:53.810Z,63.67
2017-10-25T08:08:54.127Z,61.94
2017-10-25T08:09:53.781Z,62.52
2017-10-25T08:10:53.765Z,63.19
2017-10-25T08:11:53.757Z,64.72
2017-10-25T08:12:54.079Z,65.2
2017-10-25T08:13:54.065Z,68.66
2017-10-25T08:14:53.722Z,69.81
2017-10-25T08:15:54.041Z,70.57
2017-10-25T08:16:53.715Z,70.86
2017-10-25T08:17:53.687Z,75.27
2017-10-25T08:18:54.005Z,74.31
2017-10-25T08:19:53.658Z,75.46
2017-10-25T08:20:53.983Z,77.48
2017-10-25T08:21:53.972Z,74.79
2017-10-25T08:22:53.955Z,77.38
2017-10-25T08:23:53.947Z,78.09
2017-10-25T08:24:53.932Z,81.35
2017-10-25T08:25:53.591Z,81.35
2017-10-25T08:26:53.583Z,85.63
2017-10-25T08:27:53.569Z,83.81
2017-10-25T08:28:53.886Z,87.35
2017-10-25T08:29:53.871Z,87.35
2017-10-25T08:30:53.870Z,85.63
2017-10-25T08:31:53.850Z,85.92
2017-10-25T08:32:53.839Z,86.21
2017-10-25T08:33:53.836Z,86.58
2017-10-25T08:34:53.499Z,87.93
2017-10-25T08:35:53.821Z,89.94
2017-10-25T08:36:53.827Z,90.08
2017-10-25T08:37:53.900Z,89.61
2017-10-25T08:38:53.435Z,90.81
2017-10-25T08:39:53.766Z,89.18
2017-10-25T08:40:53.418Z,91.57
2017-10-25T08:41:53.406Z,89.12
2017-10-25T08:42:53.392Z,90.61
2017-10-25T08:43:53.380Z,89.65
2017-10-25T08:44:53.745Z,88.98
2017-10-25T08:45:53.685Z,88.17
2017-10-25T08:46:53.672Z,88.93
2017-10-25T08:47:53.678Z,90.85
2017-10-25T08:48:53.656Z,92.19
2017-10-25T08:49:53.307Z,89.08
2017-10-25T08:50:53.630Z,89.12
2017-10-25T08:51:53.624Z,90.95
2017-10-25T08:52:53.269Z,88.93
2017-10-25T08:53:53.256Z,89.12
2017-10-25T08:54:53.246Z,89.22
2017-10-25T08:55:53.234Z,87.68
2017-10-25T08:56:53.223Z,89.12
2017-10-25T08:57:53.549Z,85.58
2017-10-25T08:58:53.199Z,87.21
2017-10-25T08:59:53.190Z,89.99
2017-10-25T09:00:53.517Z,88.74
2017-10-25T09:01:53.168Z,94.02
2017-10-25T09:02:53.156Z,91.33
2017-10-25T09:03:53.147Z,94.31
2017-10-25T09:04:53.468Z,92.1
2017-10-25T09:05:53.119Z,98.14
2017-10-25T09:06:53.449Z,94.79
2017-10-25T09:07:53.434Z,99.29
2017-10-25T09:08:53.424Z,97.56
2017-10-25T09:09:53.078Z,97.56
2017-10-25T09:10:53.065Z,95.46
2017-10-25T09:11:53.391Z,93.44
2017-10-25T09:12:53.052Z,92.19
2017-10-25T09:13:53.369Z,92.68
2017-10-25T09:14:53.017Z,91.96
2017-10-25T09:15:53.337Z,95.55
2017-10-25T09:16:53.331Z,94.02
2017-10-25T09:17:53.084Z,94.4
2017-10-25T09:18:53.308Z,93.11
2017-10-25T09:19:52.960Z,94.79
2017-10-25T09:20:52.946Z,92.19
2017-10-25T09:21:52.935Z,93.97
2017-10-25T09:22:52.926Z,93.82
2017-10-25T09:23:53.246Z,96.61
2017-10-25T09:24:53.438Z,96.42
2017-10-25T09:25:53.225Z,94.21
2017-10-25T09:26:52.881Z,95.65
2017-10-25T09:27:52.868Z,95.17
2017-10-25T09:28:52.858Z,95.6
2017-10-25T09:29:52.843Z,96.13
2017-10-25T09:30:53.172Z,99.68
2017-10-25T09:31:53.169Z,97.56
2017-10-25T09:32:52.810Z,97.95
2017-10-25T09:33:52.801Z,98.14
2017-10-25T09:34:53.122Z,96.51
2017-10-25T09:35:52.780Z,96.7
2017-10-25T09:36:52.770Z,94.88
2017-10-25T09:37:53.090Z,95.65
2017-10-25T09:38:53.073Z,96.13
2017-10-25T09:39:52.733Z,95.36
2017-10-25T09:40:53.051Z,95.46
2017-10-25T09:41:52.706Z,99.99
2017-10-25T09:42:53.031Z,97.28
2017-10-25T09:43:52.685Z,98.82
2017-10-25T09:44:53.016Z,97.81
2017-10-25T09:45:53.004Z,99.99
2017-10-25T09:46:52.988Z,99.34
2017-10-25T09:47:52.972Z,97.66
2017-10-25T09:48:52.992Z,96.61
2017-10-25T09:49:52.617Z,98.43
2017-10-25T09:50:52.940Z,99.99
2017-10-25T09:51:52.944Z,99.99
2017-10-25T09:52:52.917Z,98.86
2017-10-25T09:53:52.912Z,97.9
2017-10-25T09:54:52.557Z,95.65
2017-10-25T09:55:52.556Z,99.99
2017-10-25T09:56:52.535Z,99.99
2017-10-25T09:57:52.855Z,99.99
2017-10-25T09:58:52.516Z,99.99
2017-10-25T09:59:52.838Z,99.58
2017-10-25T10:00:52.492Z,99.01
2017-10-25T10:01:52.816Z,99.99
2017-10-25T10:02:52.795Z,99.91
2017-10-25T10:03:52.453Z,99.05
2017-10-25T10:04:52.443Z,98.57
2017-10-25T10:05:52.765Z,98.1
2017-10-25T10:06:52.754Z,98
2017-10-25T10:07:52.404Z,99.99
2017-10-25T10:08:52.394Z,99.99
2017-10-25T10:09:52.382Z,99.99
2017-10-25T10:10:52.372Z,99.99
2017-10-25T10:11:52.695Z,99.99
2017-10-25T10:12:52.345Z,99.99
2017-10-25T10:13:52.682Z,99.99
2017-10-25T10:14:52.659Z,99.99
2017-10-25T10:15:52.648Z,99.99
2017-10-25T10:16:52.302Z,99.99
2017-10-25T10:17:52.288Z,99.99
2017-10-25T10:18:52.615Z,99.99
2017-10-25T10:19:52.608Z,99.99
2017-10-25T10:20:52.594Z,99.99
2017-10-25T10:21:52.242Z,99.99
2017-10-25T10:22:52.231Z,99.99
2017-10-25T10:23:52.315Z,99.99
2017-10-25T10:24:52.541Z,99.99
2017-10-25T10:25:52.540Z,99.99
2017-10-25T10:26:52.516Z,99.99
2017-10-25T10:27:52.508Z,99.99
2017-10-25T10:28:52.158Z,99.99
2017-10-25T10:29:52.145Z,99.99
2017-10-25T10:30:52.471Z,99.99
2017-10-25T10:31:52.119Z,99.99
2017-10-25T10:32:52.445Z,99.99
2017-10-25T10:33:52.431Z,99.99
2017-10-25T10:34:52.424Z,99.99
2017-10-25T10:35:52.405Z,99.99
2017-10-25T10:36:52.058Z,99.99
2017-10-25T10:37:52.047Z,99.99
2017-10-25T10:38:52.034Z,99.99
2017-10-25T10:39:52.025Z,99.99
2017-10-25T10:40:52.342Z,99.99
2017-10-25T10:41:52.002Z,99.99
2017-10-25T10:42:52.318Z,99.99
2017-10-25T10:43:52.308Z,99.99
2017-10-25T10:44:51.958Z,99.99
2017-10-25T10:45:51.949Z,99.99
2017-10-25T10:46:52.272Z,99.99
2017-10-25T10:47:52.256Z,99.99
2017-10-25T10:48:51.911Z,99.99
2017-10-25T10:49:52.231Z,99.99
2017-10-25T10:50:52.229Z,99.99
2017-10-25T10:51:52.212Z,99.99
2017-10-25T10:52:51.860Z,99.99
2017-10-25T10:53:52.185Z,99.99
2017-10-25T10:54:52.171Z,99.99
2017-10-25T10:55:52.164Z,99.99
2017-10-25T10:56:52.144Z,99.01
2017-10-25T10:57:51.797Z,99.99
2017-10-25T10:58:52.122Z,99.99
2017-10-25T10:59:51.778Z,99.99
2017-10-25T11:00:52.094Z,99.99
2017-10-25T11:01:51.749Z,99.99
2017-10-25T11:02:52.069Z,99.99
2017-10-25T11:03:52.063Z,99.99
2017-10-25T11:04:52.055Z,99.99
2017-10-25T11:05:52.039Z,99.99
2017-10-25T11:06:52.039Z,99.99
2017-10-25T11:07:51.675Z,99.99
2017-10-25T11:08:52.006Z,99.99
2017-10-25T11:09:52.084Z,99.99
2017-10-25T11:10:51.979Z,99.99
2017-10-25T11:11:51.976Z,99.99
2017-10-25T11:12:51.615Z,99.99
2017-10-25T11:13:51.602Z,99.99
2017-10-25T11:14:51.929Z,99.99
2017-10-25T11:15:51.911Z,99.99
2017-10-25T11:16:51.905Z,99.99
2017-10-25T11:17:51.557Z,99.99
2017-10-25T11:18:51.874Z,99.99
2017-10-25T11:19:51.970Z,99.99
2017-10-25T11:20:51.854Z,99.99
2017-10-25T11:21:51.848Z,99.99
2017-10-25T11:22:51.833Z,99.99
2017-10-25T11:23:51.489Z,99.99
2017-10-25T11:24:51.672Z,99.99
2017-10-25T11:25:51.458Z,99.99
2017-10-25T11:26:51.450Z,99.99
2017-10-25T11:27:51.771Z,99.99
2017-10-25T11:28:51.761Z,99.99
2017-10-25T11:29:51.842Z,99.99
2017-10-25T11:30:51.730Z,99.99
2017-10-25T11:31:51.390Z,99.99
2017-10-25T11:32:51.709Z,99.99
2017-10-25T11:33:51.700Z,99.99
2017-10-25T11:34:51.356Z,99.99
2017-10-25T11:35:51.348Z,99.99
2017-10-25T11:36:51.328Z,99.99
2017-10-25T11:37:51.317Z,99.99
2017-10-25T11:38:51.304Z,99.99
2017-10-25T11:39:51.628Z,99.99
2017-10-25T11:40:51.280Z,99.99
2017-10-25T11:41:51.601Z,99.99
2017-10-25T11:42:51.594Z,99.99
2017-10-25T11:43:51.581Z,99.99
2017-10-25T11:44:51.566Z,99.99
2017-10-25T11:45:51.561Z,99.05
2017-10-25T11:46:51.210Z,99.73
2017-10-25T11:47:51.200Z,98.96
2017-10-25T11:48:51.518Z,99.99
2017-10-25T11:49:51.170Z,99.99
2017-10-25T11:50:51.160Z,99.99
2017-10-25T11:51:51.487Z,99.53
2017-10-25T11:52:51.472Z,98.77
2017-10-25T11:53:51.123Z,97.61
2017-10-25T11:54:51.109Z,98.91
2017-10-25T11:55:51.443Z,98.77
2017-10-25T11:56:51.091Z,97.66
2017-10-25T11:57:51.414Z,98.52
2017-10-25T11:58:51.397Z,95.65
2017-10-25T11:59:51.056Z,98.33
2017-10-25T12:00:51.373Z,97.85
2017-10-25T12:01:51.359Z,99.58
2017-10-25T12:02:51.349Z,98.28
2017-10-25T12:03:51.336Z,96.99
2017-10-25T12:04:51.330Z,96.22
2017-10-25T12:05:51.315Z,95.94
2017-10-25T12:06:50.972Z,96.13
2017-10-25T12:07:50.961Z,96.89
2017-10-25T12:08:51.274Z,96.51
2017-10-25T12:09:50.934Z,97.76
2017-10-25T12:10:51.255Z,98.81
2017-10-25T12:11:50.906Z,98.24
2017-10-25T12:12:50.895Z,98.52
2017-10-25T12:13:50.881Z,97.66
2017-10-25T12:14:51.205Z,97.38
2017-10-25T12:15:50.861Z,96.99
2017-10-25T12:16:51.176Z,97.47
2017-10-25T12:17:51.171Z,98.33
2017-10-25T12:18:51.157Z,98.48
2017-10-25T12:19:51.148Z,98.48
2017-10-25T12:20:51.129Z,98.52
2017-10-25T12:21:51.121Z,98.57
2017-10-25T12:22:50.774Z,98.77
2017-10-25T12:23:51.092Z,99.99
2017-10-25T12:24:51.081Z,98.81
2017-10-25T12:25:50.735Z,97.47
2017-10-25T12:26:50.725Z,97.85
2017-10-25T12:27:51.042Z,98.05
2017-10-25T12:28:51.029Z,97.95
2017-10-25T12:29:50.700Z,96.61
2017-10-25T12:30:51.016Z,94.89
2017-10-25T12:31:50.659Z,95.75
2017-10-25T12:32:50.649Z,95.84
2017-10-25T12:33:50.634Z,94.21
2017-10-25T12:34:50.963Z,93.16
2017-10-25T12:35:50.612Z,93.93
2017-10-25T12:36:50.931Z,93.54
2017-10-25T12:37:50.927Z,92.77
2017-10-25T12:38:50.911Z,92.97
2017-10-25T12:39:50.894Z,93.83
2017-10-25T12:40:50.885Z,94.02
2017-10-25T12:41:50.876Z,92.97
2017-10-25T12:42:50.526Z,91.91
2017-10-25T12:43:50.522Z,93.06
2017-10-25T12:44:50.503Z,92.87
2017-10-25T12:45:50.486Z,91.72
2017-10-25T12:46:50.814Z,93.26
2017-10-25T12:47:50.463Z,92.68
2017-10-25T12:48:50.462Z,91.82
2017-10-25T12:49:50.440Z,91.05
2017-10-25T12:50:50.867Z,90.38
2017-10-25T12:51:50.422Z,92.01
2017-10-25T12:52:50.744Z,90.76
2017-10-25T12:53:50.737Z,90.67
2017-10-25T12:54:50.710Z,89.9
2017-10-25T12:55:50.710Z,89.51
2017-10-25T12:56:50.356Z,89.51
2017-10-25T12:57:50.673Z,88.75
2017-10-25T12:58:50.668Z,88.17
2017-10-25T12:59:50.317Z,88.46
2017-10-25T13:00:50.675Z,87.79
2017-10-25T13:01:50.636Z,87.21
2017-10-25T13:02:50.284Z,87.12
2017-10-25T13:03:50.625Z,85.97
2017-10-25T13:04:50.593Z,85.01
2017-10-25T13:05:50.626Z,85.11
2017-10-25T13:06:50.564Z,84.44
2017-10-25T13:07:50.551Z,84.53
2017-10-25T13:08:50.548Z,83.95
2017-10-25T13:09:50.196Z,83.05
2017-10-25T13:10:50.517Z,82.38
2017-10-25T13:11:50.504Z,81.81
2017-10-25T13:12:50.497Z,82.04
2017-10-25T13:13:50.476Z,81.9